createdAt,value
2023-05-09T00:00:05.806Z,981.16
2023-05-09T00:01:05.698Z,981.13
2023-05-09T00:02:05.646Z,981.16
2023-05-09T00:03:05.592Z,981.15
2023-05-09T00:04:05.489Z,981.15
2023-05-09T00:05:05.425Z,981.17
2023-05-09T00:06:05.317Z,981.16
2023-05-09T00:07:05.223Z,981.16
2023-05-09T00:08:05.156Z,981.18
2023-05-09T00:09:05.072Z,981.15
2023-05-09T00:10:05.025Z,981.15
2023-05-09T00:11:05.019Z,981.16
2023-05-09T00:12:04.832Z,981.12
2023-05-09T00:13:04.785Z,981.12
2023-05-09T00:14:04.679Z,981.12
2023-05-09T00:15:04.597Z,981.10
2023-05-09T00:16:04.533Z,981.14
2023-05-09T00:17:04.438Z,981.10
2023-05-09T00:18:04.390Z,981.09
2023-05-09T00:19:04.289Z,981.11
2023-05-09T00:20:04.218Z,981.10
2023-05-09T00:21:04.149Z,981.05
2023-05-09T00:22:04.049Z,981.05
2023-05-09T00:23:03.979Z,981.07
2023-05-09T00:24:03.891Z,981.04
2023-05-09T00:25:03.825Z,981.09
2023-05-09T00:26:03.736Z,981.05
2023-05-09T00:27:03.756Z,981.05
2023-05-09T00:28:03.572Z,981.03
2023-05-09T00:29:03.507Z,981.04
2023-05-09T00:30:03.424Z,981.02
2023-05-09T00:31:03.341Z,981.00
2023-05-09T00:32:03.312Z,980.99
2023-05-09T00:33:03.272Z,980.98
2023-05-09T00:34:03.109Z,980.97
2023-05-09T00:35:03.023Z,980.95
2023-05-09T00:36:02.952Z,980.96
2023-05-09T00:37:02.874Z,980.95
2023-05-09T00:38:02.814Z,980.95
2023-05-09T00:39:02.712Z,980.95
2023-05-09T00:40:02.632Z,980.92
2023-05-09T00:41:02.571Z,980.90
2023-05-09T00:42:02.483Z,980.86
2023-05-09T00:43:02.514Z,980.85
2023-05-09T00:44:02.327Z,980.82
2023-05-09T00:45:02.237Z,980.84
2023-05-09T00:46:02.261Z,980.83
2023-05-09T00:47:02.106Z,980.80
2023-05-09T00:48:02.027Z,980.81
2023-05-09T00:49:01.948Z,980.78
2023-05-09T00:50:01.850Z,980.80
2023-05-09T00:51:01.769Z,980.76
2023-05-09T00:52:01.685Z,980.76
2023-05-09T00:53:01.615Z,980.74
2023-05-09T00:54:01.549Z,980.77
2023-05-09T00:55:01.446Z,980.75
2023-05-09T00:56:01.379Z,980.74
2023-05-09T00:57:01.319Z,980.70
2023-05-09T00:58:01.220Z,980.68
2023-05-09T00:59:01.242Z,980.68
2023-05-09T01:00:01.074Z,980.67
2023-05-09T01:01:00.997Z,980.67
2023-05-09T01:02:00.926Z,980.63
2023-05-09T01:03:00.949Z,980.67
2023-05-09T01:04:00.749Z,980.65
2023-05-09T01:05:00.681Z,980.65
2023-05-09T01:06:00.597Z,980.65
2023-05-09T01:07:00.507Z,980.63
2023-05-09T01:08:00.440Z,980.64
2023-05-09T01:09:00.356Z,980.63
2023-05-09T01:10:00.276Z,980.63
2023-05-09T01:11:00.209Z,980.63
2023-05-09T01:12:00.168Z,980.60
2023-05-09T01:13:00.192Z,980.59
2023-05-09T01:13:59.962Z,980.61
2023-05-09T01:14:59.989Z,980.55
2023-05-09T01:15:59.844Z,980.58
2023-05-09T01:16:59.751Z,980.52
2023-05-09T01:17:59.665Z,980.50
2023-05-09T01:18:59.569Z,980.52
2023-05-09T01:19:59.491Z,980.57
2023-05-09T01:20:59.410Z,980.54
2023-05-09T01:21:59.329Z,980.52
2023-05-09T01:22:59.254Z,980.51
2023-05-09T01:23:59.180Z,980.48
2023-05-09T01:24:59.095Z,980.50
2023-05-09T01:25:59.012Z,980.50
2023-05-09T01:26:58.947Z,980.50
2023-05-09T01:27:58.856Z,980.49
2023-05-09T01:28:58.793Z,980.49
2023-05-09T01:29:58.707Z,980.46
2023-05-09T01:30:58.806Z,980.48
2023-05-09T01:31:58.563Z,980.47
2023-05-09T01:32:58.556Z,980.46
2023-05-09T01:33:58.406Z,980.44
2023-05-09T01:34:58.307Z,980.46
2023-05-09T01:35:58.230Z,980.45
2023-05-09T01:36:58.157Z,980.44
2023-05-09T01:37:58.074Z,980.43
2023-05-09T01:38:57.992Z,980.42
2023-05-09T01:39:57.915Z,980.42
2023-05-09T01:40:57.837Z,980.44
2023-05-09T01:41:57.751Z,980.43
2023-05-09T01:42:57.686Z,980.41
2023-05-09T01:43:57.627Z,980.42
2023-05-09T01:44:57.524Z,980.41
2023-05-09T01:45:57.453Z,980.37
2023-05-09T01:46:57.587Z,980.40
2023-05-09T01:47:57.330Z,980.36
2023-05-09T01:48:57.201Z,980.38
2023-05-09T01:49:57.130Z,980.31
2023-05-09T01:50:57.048Z,980.33
2023-05-09T01:51:56.969Z,980.32
2023-05-09T01:52:56.892Z,980.30
2023-05-09T01:53:56.818Z,980.31
2023-05-09T01:54:56.732Z,980.30
2023-05-09T01:55:56.650Z,980.32
2023-05-09T01:56:56.589Z,980.31
2023-05-09T01:57:56.505Z,980.30
2023-05-09T01:58:56.415Z,980.30
2023-05-09T01:59:56.342Z,980.31
2023-05-09T02:00:56.298Z,980.32
2023-05-09T02:01:56.189Z,980.29
2023-05-09T02:02:56.373Z,980.30
2023-05-09T02:03:56.017Z,980.28
2023-05-09T02:04:55.941Z,980.27
2023-05-09T02:05:55.861Z,980.24
2023-05-09T02:06:55.791Z,980.22
2023-05-09T02:07:55.704Z,980.23
2023-05-09T02:08:55.630Z,980.24
2023-05-09T02:09:55.554Z,980.24
2023-05-09T02:10:55.469Z,980.23
2023-05-09T02:11:55.389Z,980.22
2023-05-09T02:12:55.354Z,980.21
2023-05-09T02:13:55.241Z,980.21
2023-05-09T02:14:55.153Z,980.23
2023-05-09T02:15:55.072Z,980.20
2023-05-09T02:16:55.033Z,980.23
2023-05-09T02:17:54.919Z,980.24
2023-05-09T02:18:54.944Z,980.24
2023-05-09T02:19:54.757Z,980.22
2023-05-09T02:20:54.730Z,980.23
2023-05-09T02:21:54.604Z,980.23
2023-05-09T02:22:54.516Z,980.20
2023-05-09T02:23:54.450Z,980.23
2023-05-09T02:24:54.361Z,980.21
2023-05-09T02:25:54.279Z,980.22
2023-05-09T02:26:54.202Z,980.26
2023-05-09T02:27:54.129Z,980.25
2023-05-09T02:28:54.051Z,980.27
2023-05-09T02:29:53.968Z,980.24
2023-05-09T02:30:53.890Z,980.27
2023-05-09T02:31:53.827Z,980.26
2023-05-09T02:32:53.803Z,980.28
2023-05-09T02:33:53.653Z,980.27
2023-05-09T02:34:53.681Z,980.24
2023-05-09T02:35:53.504Z,980.27
2023-05-09T02:36:53.423Z,980.24
2023-05-09T02:37:53.337Z,980.23
2023-05-09T02:38:53.263Z,980.23
2023-05-09T02:39:53.175Z,980.22
2023-05-09T02:40:53.098Z,980.20
2023-05-09T02:41:53.017Z,980.19
2023-05-09T02:42:52.949Z,980.23
2023-05-09T02:43:52.867Z,980.21
2023-05-09T02:44:52.784Z,980.19
2023-05-09T02:45:52.770Z,980.15
2023-05-09T02:46:52.627Z,980.15
2023-05-09T02:47:52.570Z,980.14
2023-05-09T02:48:52.469Z,980.13
2023-05-09T02:49:52.390Z,980.14
2023-05-09T02:50:52.401Z,980.09
2023-05-09T02:51:52.225Z,980.15
2023-05-09T02:52:52.166Z,980.11
2023-05-09T02:53:52.076Z,980.10
2023-05-09T02:54:52.001Z,980.11
2023-05-09T02:55:51.906Z,980.08
2023-05-09T02:56:51.871Z,980.09
2023-05-09T02:57:58.969Z,980.10
2023-05-09T02:58:51.683Z,980.10
2023-05-09T02:59:51.593Z,980.07
2023-05-09T03:00:51.543Z,980.10
2023-05-09T03:01:51.458Z,980.08
2023-05-09T03:02:51.443Z,980.08
2023-05-09T03:03:51.435Z,980.07
2023-05-09T03:04:51.198Z,980.12
2023-05-09T03:05:51.128Z,980.11
2023-05-09T03:06:51.149Z,980.11
2023-05-09T03:07:50.967Z,980.11
2023-05-09T03:08:50.884Z,980.14
2023-05-09T03:09:50.804Z,980.12
2023-05-09T03:10:50.724Z,980.15
2023-05-09T03:11:50.642Z,980.16
2023-05-09T03:12:50.581Z,980.15
2023-05-09T03:13:50.493Z,980.15
2023-05-09T03:14:50.414Z,980.17
2023-05-09T03:15:50.363Z,980.20
2023-05-09T03:16:50.261Z,980.15
2023-05-09T03:17:50.209Z,980.15
2023-05-09T03:18:50.094Z,980.14
2023-05-09T03:19:50.018Z,980.15
2023-05-09T03:20:49.935Z,980.14
2023-05-09T03:21:49.852Z,980.12
2023-05-09T03:22:49.889Z,980.14
2023-05-09T03:23:49.705Z,980.14
2023-05-09T03:24:49.625Z,980.12
2023-05-09T03:25:49.541Z,980.13
2023-05-09T03:26:49.459Z,980.13
2023-05-09T03:27:49.467Z,980.11
2023-05-09T03:28:49.300Z,980.12
2023-05-09T03:29:49.218Z,980.10
2023-05-09T03:30:49.149Z,980.11
2023-05-09T03:31:49.146Z,980.12
2023-05-09T03:32:48.999Z,980.09
2023-05-09T03:33:48.912Z,980.09
2023-05-09T03:34:48.844Z,980.11
2023-05-09T03:35:48.744Z,980.07
2023-05-09T03:36:48.677Z,980.09
2023-05-09T03:37:48.598Z,980.09
2023-05-09T03:38:48.618Z,980.07
2023-05-09T03:39:48.434Z,980.07
2023-05-09T03:40:48.356Z,980.06
2023-05-09T03:41:48.271Z,980.05
2023-05-09T03:42:48.213Z,979.99
2023-05-09T03:43:48.138Z,980.01
2023-05-09T03:44:48.039Z,980.02
2023-05-09T03:45:47.953Z,980.02
2023-05-09T03:46:47.901Z,980.02
2023-05-09T03:47:47.860Z,980.02
2023-05-09T03:48:47.721Z,980.03
2023-05-09T03:49:47.649Z,980.09
2023-05-09T03:50:47.572Z,980.08
2023-05-09T03:51:47.484Z,980.04
2023-05-09T03:52:47.407Z,980.07
2023-05-09T03:53:47.330Z,980.08
2023-05-09T03:54:47.352Z,980.09
2023-05-09T03:55:47.173Z,980.09
2023-05-09T03:56:47.085Z,980.09
2023-05-09T03:57:47.008Z,980.09
2023-05-09T03:58:46.928Z,980.10
2023-05-09T03:59:46.848Z,980.08
2023-05-09T04:00:46.780Z,980.08
2023-05-09T04:01:46.707Z,980.08
2023-05-09T04:02:46.660Z,980.06
2023-05-09T04:03:46.655Z,980.10
2023-05-09T04:04:46.465Z,980.06
2023-05-09T04:05:46.378Z,980.06
2023-05-09T04:06:46.289Z,980.07
2023-05-09T04:07:46.224Z,980.06
2023-05-09T04:08:46.132Z,980.08
2023-05-09T04:09:46.055Z,980.09
2023-05-09T04:10:46.105Z,980.09
2023-05-09T04:11:45.907Z,980.09
2023-05-09T04:12:45.832Z,980.09
2023-05-09T04:13:45.739Z,980.09
2023-05-09T04:14:48.204Z,980.09
2023-05-09T04:15:45.583Z,980.11
2023-05-09T04:16:45.545Z,980.12
2023-05-09T04:17:45.486Z,980.10
2023-05-09T04:18:45.345Z,980.11
2023-05-09T04:19:45.266Z,980.14
2023-05-09T04:20:45.197Z,980.12
2023-05-09T04:21:45.105Z,980.14
2023-05-09T04:22:46.802Z,980.13
2023-05-09T04:23:44.951Z,980.11
2023-05-09T04:24:44.870Z,980.11
2023-05-09T04:25:44.791Z,980.07
2023-05-09T04:26:44.820Z,980.11
2023-05-09T04:27:44.629Z,980.09
2023-05-09T04:28:44.550Z,980.07
2023-05-09T04:29:44.476Z,980.07
2023-05-09T04:30:44.423Z,980.08
2023-05-09T04:31:44.566Z,980.06
2023-05-09T04:32:44.256Z,980.08
2023-05-09T04:33:44.148Z,980.02
2023-05-09T04:34:44.083Z,980.02
2023-05-09T04:35:44.007Z,980.01
2023-05-09T04:36:43.916Z,979.98
2023-05-09T04:37:43.841Z,980.02
2023-05-09T04:38:43.757Z,980.00
2023-05-09T04:39:43.673Z,979.98
2023-05-09T04:40:43.651Z,980.00
2023-05-09T04:41:43.533Z,980.02
2023-05-09T04:42:43.552Z,980.04
2023-05-09T04:43:43.367Z,980.06
2023-05-09T04:44:43.292Z,980.08
2023-05-09T04:45:43.202Z,980.08
2023-05-09T04:46:43.159Z,980.07
2023-05-09T04:47:43.051Z,980.05
2023-05-09T04:48:42.963Z,980.06
2023-05-09T04:49:42.882Z,980.07
2023-05-09T04:50:42.809Z,980.06
2023-05-09T04:51:42.732Z,980.06
2023-05-09T04:52:42.672Z,980.05
2023-05-09T04:53:42.566Z,980.05
2023-05-09T04:54:42.496Z,980.06
2023-05-09T04:55:42.406Z,980.03
2023-05-09T04:56:42.336Z,980.06
2023-05-09T04:57:42.249Z,980.02
2023-05-09T04:58:42.274Z,980.07
2023-05-09T04:59:42.088Z,980.02
2023-05-09T05:00:42.017Z,980.07
2023-05-09T05:01:41.971Z,980.10
2023-05-09T05:02:41.905Z,980.07
2023-05-09T05:03:41.776Z,980.11
2023-05-09T05:04:41.754Z,980.12
2023-05-09T05:05:41.667Z,980.11
2023-05-09T05:06:41.536Z,980.12
2023-05-09T05:07:41.456Z,980.07
2023-05-09T05:08:41.386Z,980.09
2023-05-09T05:09:41.304Z,980.10
2023-05-09T05:10:41.220Z,980.06
2023-05-09T05:11:45.073Z,980.03
2023-05-09T05:12:41.086Z,980.06
2023-05-09T05:13:40.982Z,980.09
2023-05-09T05:14:41.014Z,980.05
2023-05-09T05:15:40.828Z,980.03
2023-05-09T05:16:40.755Z,980.04
2023-05-09T05:17:40.689Z,980.02
2023-05-09T05:18:40.597Z,980.03
2023-05-09T05:19:40.499Z,980.02
2023-05-09T05:20:40.421Z,980.00
2023-05-09T05:21:40.347Z,980.02
2023-05-09T05:22:40.263Z,980.07
2023-05-09T05:23:40.199Z,980.06
2023-05-09T05:24:40.106Z,980.07
2023-05-09T05:25:40.042Z,980.08
2023-05-09T05:26:39.950Z,980.10
2023-05-09T05:27:39.877Z,980.10
2023-05-09T05:28:39.786Z,980.05
2023-05-09T05:29:39.720Z,980.08
2023-05-09T05:30:39.745Z,980.09
2023-05-09T05:31:39.562Z,980.06
2023-05-09T05:32:39.514Z,980.07
2023-05-09T05:33:39.390Z,980.08
2023-05-09T05:34:39.318Z,980.09
2023-05-09T05:35:39.256Z,980.11
2023-05-09T05:36:39.148Z,980.10
2023-05-09T05:37:39.079Z,980.10
2023-05-09T05:38:38.991Z,980.06
2023-05-09T05:39:38.917Z,980.09
2023-05-09T05:40:38.843Z,980.09
2023-05-09T05:41:38.760Z,980.06
2023-05-09T05:42:38.679Z,980.06
2023-05-09T05:43:38.604Z,980.04
2023-05-09T05:44:38.569Z,980.07
2023-05-09T05:45:38.451Z,980.05
2023-05-09T05:46:38.464Z,980.09
2023-05-09T05:47:38.374Z,980.03
2023-05-09T05:48:38.206Z,980.04
2023-05-09T05:49:38.122Z,980.03
2023-05-09T05:50:38.044Z,980.04
2023-05-09T05:51:37.975Z,980.04
2023-05-09T05:52:37.886Z,980.02
2023-05-09T05:53:37.799Z,979.99
2023-05-09T05:54:37.720Z,979.98
2023-05-09T05:55:37.644Z,979.97
2023-05-09T05:56:37.568Z,979.99
2023-05-09T05:57:37.485Z,979.98
2023-05-09T05:58:37.397Z,979.96
2023-05-09T05:59:37.330Z,979.98
2023-05-09T06:00:37.254Z,979.96
2023-05-09T06:01:37.169Z,979.98
2023-05-09T06:02:37.303Z,980.00
2023-05-09T06:03:37.159Z,979.96
2023-05-09T06:04:36.935Z,979.96
2023-05-09T06:05:36.849Z,979.96
2023-05-09T06:06:36.768Z,979.96
2023-05-09T06:07:36.687Z,979.95
2023-05-09T06:08:36.611Z,979.96
2023-05-09T06:09:36.535Z,979.96
2023-05-09T06:10:36.461Z,979.95
2023-05-09T06:11:36.372Z,979.92
2023-05-09T06:12:36.300Z,979.89
2023-05-09T06:13:36.222Z,979.85
2023-05-09T06:14:36.142Z,979.84
2023-05-09T06:15:36.062Z,979.81
2023-05-09T06:17:35.930Z,979.73
2023-05-09T06:18:35.926Z,979.73
2023-05-09T06:19:35.741Z,979.73
2023-05-09T06:20:35.659Z,979.74
2023-05-09T06:21:35.590Z,979.72
2023-05-09T06:22:35.508Z,979.72
2023-05-09T06:23:35.432Z,979.71
2023-05-09T06:24:36.524Z,979.75
2023-05-09T06:25:35.270Z,979.73
2023-05-09T06:26:35.200Z,979.74
2023-05-09T06:27:35.113Z,979.72
2023-05-09T06:28:35.027Z,979.72
2023-05-09T06:29:34.953Z,979.69
2023-05-09T06:30:34.874Z,979.66
2023-05-09T06:31:34.799Z,979.67
2023-05-09T06:32:34.735Z,979.67
2023-05-09T06:33:34.646Z,979.64
2023-05-09T06:34:34.657Z,979.65
2023-05-09T06:35:34.475Z,979.62
2023-05-09T06:36:34.396Z,979.62
2023-05-09T06:37:34.318Z,979.64
2023-05-09T06:38:34.244Z,979.56
2023-05-09T06:39:34.174Z,979.59
2023-05-09T06:40:34.113Z,979.55
2023-05-09T06:41:34.021Z,979.55
2023-05-09T06:42:33.927Z,979.54
2023-05-09T06:43:33.848Z,979.55
2023-05-09T06:44:33.771Z,979.49
2023-05-09T06:45:33.730Z,979.51
2023-05-09T06:46:33.666Z,979.48
2023-05-09T06:47:33.590Z,979.45
2023-05-09T06:48:33.454Z,979.45
2023-05-09T06:49:33.370Z,979.44
2023-05-09T06:50:33.397Z,979.42
2023-05-09T06:51:33.217Z,979.45
2023-05-09T06:52:33.134Z,979.45
2023-05-09T06:53:33.062Z,979.41
2023-05-09T06:54:32.981Z,979.42
2023-05-09T06:55:32.902Z,979.34
2023-05-09T06:56:32.817Z,979.32
2023-05-09T06:57:32.752Z,979.31
2023-05-09T06:58:32.657Z,979.34
2023-05-09T06:59:32.581Z,979.31
2023-05-09T07:00:32.521Z,979.28
2023-05-09T07:01:32.447Z,979.30
2023-05-09T07:02:32.437Z,979.29
2023-05-09T07:03:32.277Z,979.31
2023-05-09T07:04:32.208Z,979.27
2023-05-09T07:05:32.172Z,979.23
2023-05-09T07:06:32.043Z,979.19
2023-05-09T07:07:31.958Z,979.24
2023-05-09T07:08:31.872Z,979.21
2023-05-09T07:09:31.810Z,979.27
2023-05-09T07:10:31.716Z,979.19
2023-05-09T07:11:31.658Z,979.22
2023-05-09T07:12:31.556Z,979.24
2023-05-09T07:13:31.483Z,979.22
2023-05-09T07:14:31.408Z,979.20
2023-05-09T07:15:41.228Z,979.19
2023-05-09T07:16:31.269Z,979.16
2023-05-09T07:17:31.189Z,979.18
2023-05-09T07:18:31.083Z,979.19
2023-05-09T07:19:31.012Z,979.17
2023-05-09T07:20:30.936Z,979.17
2023-05-09T07:21:30.874Z,979.22
2023-05-09T07:22:32.658Z,979.11
2023-05-09T07:23:30.696Z,979.13
2023-05-09T07:24:30.622Z,979.11
2023-05-09T07:25:30.539Z,979.07
2023-05-09T07:26:30.473Z,979.02
2023-05-09T07:27:30.388Z,979.05
2023-05-09T07:28:30.320Z,979.05
2023-05-09T07:29:30.226Z,979.06
2023-05-09T07:30:30.153Z,979.06
2023-05-09T07:31:30.095Z,979.02
2023-05-09T07:32:30.012Z,979.07
2023-05-09T07:33:29.912Z,979.07
2023-05-09T07:34:29.853Z,979.03
2023-05-09T07:35:29.753Z,979.05
2023-05-09T07:36:29.690Z,979.05
2023-05-09T07:37:29.600Z,979.06
2023-05-09T07:38:29.613Z,979.02
2023-05-09T07:39:29.448Z,979.01
2023-05-09T07:40:29.363Z,979.01
2023-05-09T07:41:29.284Z,978.94
2023-05-09T07:42:29.205Z,979.01
2023-05-09T07:43:29.128Z,978.91
2023-05-09T07:44:29.050Z,978.93
2023-05-09T07:45:29.034Z,978.93
2023-05-09T07:46:28.937Z,978.88
2023-05-09T07:47:28.851Z,978.87
2023-05-09T07:48:28.739Z,978.90
2023-05-09T07:49:28.669Z,978.85
2023-05-09T07:50:28.583Z,978.82
2023-05-09T07:51:28.508Z,978.82
2023-05-09T07:52:28.428Z,978.79
2023-05-09T07:53:28.346Z,978.84
2023-05-09T07:54:28.376Z,978.81
2023-05-09T07:55:28.197Z,978.84
2023-05-09T07:56:28.123Z,978.78
2023-05-09T07:57:28.041Z,978.81
2023-05-09T07:58:27.968Z,978.80
2023-05-09T07:59:27.891Z,978.83
2023-05-09T08:00:27.818Z,978.78
2023-05-09T08:01:27.729Z,978.75
2023-05-09T08:02:27.711Z,978.74
2023-05-09T08:03:27.662Z,978.69
2023-05-09T08:04:27.514Z,978.77
2023-05-09T08:05:27.443Z,978.68
2023-05-09T08:06:27.347Z,978.69
2023-05-09T08:07:27.263Z,978.67
2023-05-09T08:08:27.194Z,978.68
2023-05-09T08:09:27.115Z,978.65
2023-05-09T08:10:27.145Z,978.65
2023-05-09T08:11:26.957Z,978.63
2023-05-09T08:12:26.892Z,978.63
2023-05-09T08:13:26.849Z,978.60
2023-05-09T08:14:26.722Z,978.60
2023-05-09T08:15:26.648Z,978.63
2023-05-09T08:16:26.596Z,978.61
2023-05-09T08:17:26.530Z,978.56
2023-05-09T08:18:26.430Z,978.58
2023-05-09T08:19:26.448Z,978.57
2023-05-09T08:20:26.274Z,978.61
2023-05-09T08:21:26.192Z,978.58
2023-05-09T08:22:26.116Z,978.60
2023-05-09T08:23:26.039Z,978.58
2023-05-09T08:24:25.964Z,978.55
2023-05-09T08:25:25.895Z,978.56
2023-05-09T08:26:25.926Z,978.47
2023-05-09T08:27:25.748Z,978.51
2023-05-09T08:28:25.662Z,978.48
2023-05-09T08:29:25.583Z,978.45
2023-05-09T08:30:25.496Z,978.47
2023-05-09T08:31:25.454Z,978.44
2023-05-09T08:32:25.345Z,978.47
2023-05-09T08:33:25.272Z,978.40
2023-05-09T08:34:25.193Z,978.39
2023-05-09T08:35:25.130Z,978.38
2023-05-09T08:36:25.051Z,978.39
2023-05-09T08:37:24.980Z,978.36
2023-05-09T08:38:24.892Z,978.33
2023-05-09T08:39:24.820Z,978.27
2023-05-09T08:40:24.742Z,978.29
2023-05-09T08:41:24.669Z,978.24
2023-05-09T08:42:26.358Z,978.26
2023-05-09T08:43:24.510Z,978.23
2023-05-09T08:44:24.434Z,978.20
2023-05-09T08:45:24.362Z,978.21
2023-05-09T08:46:24.339Z,978.15
2023-05-09T08:47:24.227Z,978.19
2023-05-09T08:48:24.133Z,978.16
2023-05-09T08:49:24.054Z,978.18
2023-05-09T08:50:23.990Z,978.13
2023-05-09T08:51:23.904Z,978.12
2023-05-09T08:52:23.826Z,978.15
2023-05-09T08:53:23.741Z,978.08
2023-05-09T08:54:23.668Z,978.14
2023-05-09T08:55:23.604Z,978.06
2023-05-09T08:56:23.514Z,978.09
2023-05-09T08:57:23.442Z,978.05
2023-05-09T08:58:23.479Z,978.08
2023-05-09T08:59:23.297Z,978.04
2023-05-09T09:00:23.543Z,978.04
2023-05-09T09:01:23.162Z,977.95
2023-05-09T09:02:23.061Z,977.98
2023-05-09T09:03:22.991Z,977.97
2023-05-09T09:04:22.953Z,977.94
2023-05-09T09:05:39.881Z,977.99
2023-05-09T09:06:22.770Z,978.02
2023-05-09T09:07:22.685Z,978.01
2023-05-09T09:08:22.618Z,978.04
2023-05-09T09:09:22.539Z,978.03
2023-05-09T09:10:22.455Z,978.04
2023-05-09T09:11:22.399Z,977.97
2023-05-09T09:12:22.302Z,978.08
2023-05-09T09:13:22.252Z,978.05
2023-05-09T09:14:22.248Z,978.07
2023-05-09T09:15:22.083Z,978.00
2023-05-09T09:16:22.076Z,977.95
2023-05-09T09:17:21.937Z,978.00
2023-05-09T09:18:21.865Z,977.90
2023-05-09T09:19:21.783Z,977.90
2023-05-09T09:20:21.703Z,977.89
2023-05-09T09:21:21.622Z,977.87
2023-05-09T09:22:21.588Z,977.94
2023-05-09T09:23:21.486Z,977.93
2023-05-09T09:24:21.429Z,977.91
2023-05-09T09:25:21.319Z,977.84
2023-05-09T09:26:21.253Z,977.87
2023-05-09T09:27:21.177Z,977.91
2023-05-09T09:28:21.100Z,977.86
2023-05-09T09:29:21.066Z,977.85
2023-05-09T09:30:21.047Z,977.84
2023-05-09T09:31:20.973Z,977.82
2023-05-09T09:32:21.101Z,977.83
2023-05-09T09:33:20.725Z,977.81
2023-05-09T09:34:20.646Z,977.80
2023-05-09T09:35:20.592Z,977.76
2023-05-09T09:36:20.500Z,977.80
2023-05-09T09:37:20.418Z,977.71
2023-05-09T09:38:20.351Z,977.69
2023-05-09T09:39:20.287Z,977.65
2023-05-09T09:40:20.254Z,977.62
2023-05-09T09:41:20.128Z,977.59
2023-05-09T09:42:20.062Z,977.55
2023-05-09T09:43:19.970Z,977.56
2023-05-09T09:44:19.909Z,977.51
2023-05-09T09:45:19.825Z,977.46
2023-05-09T09:46:19.883Z,977.48
2023-05-09T09:47:19.681Z,977.50
2023-05-09T09:48:19.621Z,977.50
2023-05-09T09:49:19.518Z,977.52
2023-05-09T09:50:19.515Z,977.48
2023-05-09T09:51:19.372Z,977.49
2023-05-09T09:52:19.301Z,977.39
2023-05-09T09:53:19.218Z,977.45
2023-05-09T09:54:19.155Z,977.39
2023-05-09T09:55:19.075Z,977.39
2023-05-09T09:56:19.007Z,977.38
2023-05-09T09:57:18.923Z,977.33
2023-05-09T09:58:18.853Z,977.38
2023-05-09T09:59:18.807Z,977.33
2023-05-09T10:00:18.758Z,977.27
2023-05-09T10:01:18.733Z,977.30
2023-05-09T10:02:18.657Z,977.26
2023-05-09T10:03:18.602Z,977.27
2023-05-09T10:04:18.419Z,977.27
2023-05-09T10:05:18.365Z,977.26
2023-05-09T10:06:18.261Z,977.29
2023-05-09T10:07:18.174Z,977.35
2023-05-09T10:08:18.097Z,977.33
2023-05-09T10:09:18.034Z,977.33
2023-05-09T10:10:18.005Z,977.27
2023-05-09T10:11:17.899Z,977.23
2023-05-09T10:12:17.805Z,977.18
2023-05-09T10:13:17.773Z,977.16
2023-05-09T10:14:17.650Z,977.17
2023-05-09T10:15:17.586Z,977.16
2023-05-09T10:16:21.309Z,977.14
2023-05-09T10:17:17.494Z,977.09
2023-05-09T10:18:17.600Z,977.07
2023-05-09T10:19:17.273Z,977.13
2023-05-09T10:20:17.357Z,977.14
2023-05-09T10:21:17.128Z,977.12
2023-05-09T10:22:17.059Z,977.06
2023-05-09T10:23:16.982Z,977.03
2023-05-09T10:24:16.910Z,976.92
2023-05-09T10:25:17.016Z,976.94
2023-05-09T10:26:16.760Z,976.85
2023-05-09T10:27:16.688Z,976.85
2023-05-09T10:28:16.610Z,976.83
2023-05-09T10:29:16.532Z,976.81
2023-05-09T10:30:16.461Z,976.78
2023-05-09T10:31:16.451Z,976.74
2023-05-09T10:32:16.318Z,976.70
2023-05-09T10:33:16.261Z,976.69
2023-05-09T10:34:16.163Z,976.69
2023-05-09T10:35:16.421Z,976.69
2023-05-09T10:36:16.020Z,976.73
2023-05-09T10:37:15.935Z,976.70
2023-05-09T10:38:15.863Z,976.67
2023-05-09T10:39:15.791Z,976.67
2023-05-09T10:40:15.743Z,976.69
2023-05-09T10:41:15.648Z,976.68
2023-05-09T10:42:15.575Z,976.69
2023-05-09T10:43:15.496Z,976.62
2023-05-09T10:44:15.418Z,976.58
2023-05-09T10:45:15.600Z,976.46
2023-05-09T10:46:15.343Z,976.54
2023-05-09T10:47:15.196Z,976.49
2023-05-09T10:48:15.129Z,976.42
2023-05-09T10:49:15.046Z,976.47
2023-05-09T10:50:15.074Z,976.46
2023-05-09T10:51:14.909Z,976.40
2023-05-09T10:52:14.830Z,976.38
2023-05-09T10:53:14.756Z,976.39
2023-05-09T10:54:14.688Z,976.40
2023-05-09T10:55:14.750Z,976.38
2023-05-09T10:56:14.533Z,976.35
2023-05-09T10:57:14.459Z,976.39
2023-05-09T10:58:14.381Z,976.40
2023-05-09T10:59:14.306Z,976.39
2023-05-09T11:00:14.244Z,976.33
2023-05-09T11:01:14.209Z,976.33
2023-05-09T11:02:14.085Z,976.31
2023-05-09T11:03:14.105Z,976.23
2023-05-09T11:04:13.944Z,976.22
2023-05-09T11:05:14.077Z,976.23
2023-05-09T11:06:13.897Z,976.18
2023-05-09T11:07:13.722Z,976.19
2023-05-09T11:08:13.650Z,976.19
2023-05-09T11:09:13.579Z,976.14
2023-05-09T11:10:13.516Z,976.16
2023-05-09T11:11:13.427Z,976.12
2023-05-09T11:12:13.364Z,976.13
2023-05-09T11:13:13.325Z,976.17
2023-05-09T11:14:13.213Z,976.15
2023-05-09T11:15:13.266Z,976.15
2023-05-09T11:16:13.121Z,976.09
2023-05-09T11:17:13.011Z,976.11
2023-05-09T11:18:13.003Z,976.07
2023-05-09T11:19:12.843Z,976.00
2023-05-09T11:20:12.767Z,976.00
2023-05-09T11:21:12.690Z,975.96
2023-05-09T11:22:12.725Z,975.96
2023-05-09T11:23:12.550Z,975.95
2023-05-09T11:24:12.479Z,976.02
2023-05-09T11:25:12.619Z,975.94
2023-05-09T11:26:12.324Z,975.94
2023-05-09T11:27:12.254Z,975.93
2023-05-09T11:28:12.203Z,975.94
2023-05-09T11:29:12.109Z,975.87
2023-05-09T11:30:12.036Z,975.95
2023-05-09T11:31:11.985Z,975.92
2023-05-09T11:32:12.013Z,975.88
2023-05-09T11:33:11.873Z,975.85
2023-05-09T11:34:11.748Z,975.86
2023-05-09T11:35:11.824Z,975.76
2023-05-09T11:36:11.604Z,975.74
2023-05-09T11:37:11.532Z,975.74
2023-05-09T11:38:11.558Z,975.70
2023-05-09T11:39:11.397Z,975.64
2023-05-09T11:40:11.307Z,975.65
2023-05-09T11:41:11.233Z,975.65
2023-05-09T11:42:11.155Z,975.69
2023-05-09T11:43:11.090Z,975.63
2023-05-09T11:44:11.009Z,975.67
2023-05-09T11:45:10.932Z,975.60
2023-05-09T11:46:10.889Z,975.53
2023-05-09T11:47:10.794Z,975.52
2023-05-09T11:48:10.774Z,975.50
2023-05-09T11:49:12.170Z,975.45
2023-05-09T11:50:10.604Z,975.47
2023-05-09T11:51:10.500Z,975.47
2023-05-09T11:52:10.424Z,975.49
2023-05-09T11:53:10.353Z,975.44
2023-05-09T11:54:10.383Z,975.42
2023-05-09T11:55:12.286Z,975.36
2023-05-09T11:56:10.211Z,975.32
2023-05-09T11:57:10.055Z,975.36
2023-05-09T11:58:09.989Z,975.35
2023-05-09T11:59:09.909Z,975.33
2023-05-09T12:00:09.850Z,975.35
2023-05-09T12:01:11.247Z,975.34
2023-05-09T12:02:09.740Z,975.28
2023-05-09T12:03:09.795Z,975.34
2023-05-09T12:04:09.633Z,975.36
2023-05-09T12:05:09.473Z,975.29
2023-05-09T12:06:09.405Z,975.27
2023-05-09T12:07:09.331Z,975.22
2023-05-09T12:08:09.257Z,975.18
2023-05-09T12:09:09.177Z,975.22
2023-05-09T12:10:09.244Z,975.12
2023-05-09T12:11:09.033Z,975.21
2023-05-09T12:12:08.958Z,975.15
2023-05-09T12:13:09.012Z,975.10
2023-05-09T12:14:08.816Z,975.07
2023-05-09T12:15:08.739Z,975.04
2023-05-09T12:16:08.726Z,975.01
2023-05-09T12:17:08.622Z,974.98
2023-05-09T12:18:08.685Z,975.03
2023-05-09T12:19:08.447Z,974.95
2023-05-09T12:20:08.395Z,974.90
2023-05-09T12:21:08.315Z,974.89
2023-05-09T12:22:08.233Z,974.95
2023-05-09T12:23:08.164Z,974.94
2023-05-09T12:24:08.084Z,974.88
2023-05-09T12:25:08.026Z,974.86
2023-05-09T12:26:08.039Z,974.85
2023-05-09T12:27:07.884Z,974.83
2023-05-09T12:28:07.806Z,974.84